Blandine — CQDR — position and weather

sailwx.info

Track history (hours):
 
Tides and Currents Weather Stations Pressure Air Temp Water Temp Dewpoint Dewpoint Depression Visibility Wind Speed Wind Dir Waves Ship Positions

Blandine

Last reported at 2018-Jun-19 13:42 UTC. Time now 2018-Jun-23 19:43 UTC.
Position N 39°52' W 024°49'.

Length 295 m; draft 12.9 m.

Type: Ship (hazmat cat A). MMSI: 255805794.

Date/timePositionNaut miles runAvg speedWind from/ knotsBaromVisibWave heightAir tempDewpointWater temp
2018-Jun-19 13:42N 39°52' W 024°49'617.3
2018-Jun-19 13:20N 39°50' W 024°41'17317.8
2018-Jun-19 03:35N 39°08' W 021°03'818.1
2018-Jun-19 03:07N 39°05' W 020°53'618.1
2018-Jun-19 02:48N 39°04' W 020°46'5318.1
2018-Jun-18 23:50N 38°49' W 019°40'37617.8
2018-Jun-18 02:44N 36°50' W 012°09'1417.4
2018-Jun-18 01:55N 36°45' W 011°52'9317.2
2018-Jun-17 20:31N 36°11' W 010°05'117.3
2018-Jun-17 20:28N 36°11' W 010°04'917.2
2018-Jun-17 19:56N 36°07' W 009°53'717.4
2018-Jun-17 19:30N 36°04' W 009°45'917.5
2018-Jun-17 19:00N 36°01' W 009°34'918.1
2018-Jun-17 18:30N 35°58' W 009°24'1018.3
2018-Jun-17 17:58N 35°57' W 009°12'6518.4
2018-Jun-17 14:27N 35°58' W 007°52'918.9
2018-Jun-17 13:58N 35°58' W 007°41'918.4
2018-Jun-17 13:31N 35°57' W 007°30'918.3
2018-Jun-17 13:00N 35°57' W 007°19'918.3
2018-Jun-17 12:30N 35°58' W 007°08'1018.7
2018-Jun-17 11:59N 35°57' W 006°56'5917.7
2018-Jun-17 08:39N 35°57' W 005°43'613.8
2018-Jun-17 08:11N 35°57' W 005°35'212.9
2018-Jun-17 08:00N 35°59' W 005°32'611.5
2018-Jun-17 07:30N 35°60' W 005°25'510.2
2018-Jun-17 07:00N 36°00' W 005°19'714.2
2018-Jun-17 06:30N 36°01' W 005°10'715.0
2018-Jun-17 06:00N 36°03' W 005°01'915.4
2018-Jun-17 05:26N 36°05' W 004°51'11316.3
2018-Jun-16 22:29N 36°23' W 002°33'8417.2
2018-Jun-16 17:36N 37°10' W 001°06'518.7
2018-Jun-16 17:20N 37°14' W 001°01'618.6
2018-Jun-16 17:00N 37°18' W 000°56'918.4
2018-Jun-16 16:30N 37°24' W 000°47'1018.7
2018-Jun-16 16:00N 37°31' W 000°39'919.2
2018-Jun-16 15:30N 37°38' W 000°31'918.8
2018-Jun-16 15:00N 37°46' W 000°24'918.6
2018-Jun-16 14:30N 37°53' W 000°18'918.3
2018-Jun-16 14:00N 38°01' W 000°11'918.4
2018-Jun-16 13:31N 38°09' W 000°06'918.3
2018-Jun-16 13:00N 38°18' W 000°01'918.5
2018-Jun-16 12:31N 38°25' E 000°06'918.7
2018-Jun-16 12:00N 38°32' E 000°13'918.6
2018-Jun-16 11:31N 38°40' E 000°20'915.2
2018-Jun-16 10:57N 38°48' E 000°19'4817.5
2018-Jun-16 08:14N 39°26' W 000°18'1 2.3
2018-Jun-16 07:57N 39°26' W 000°19'0 0.2
2018-Jun-16 07:30N 39°26' W 000°19'0 0.0
2018-Jun-16 07:00N 39°26' W 000°19'0 0.0
2018-Jun-16 06:27N 39°26' W 000°19'0 0.0
2018-Jun-16 06:00N 39°26' W 000°19'0 0.0
2018-Jun-16 05:30N 39°26' W 000°19'0 0.0
2018-Jun-16 05:00N 39°26' W 000°19'0 0.0
2018-Jun-16 04:27N 39°26' W 000°19'0 0.0
2018-Jun-16 04:00N 39°26' W 000°19'0 0.0
2018-Jun-16 03:30N 39°26' W 000°19'0 0.0
2018-Jun-16 03:00N 39°26' W 000°19'0 0.0
2018-Jun-16 02:27N 39°26' W 000°19'0 0.0
2018-Jun-16 02:00N 39°26' W 000°19'0 0.0
2018-Jun-16 01:30N 39°26' W 000°19'0 0.0
2018-Jun-16 00:57N 39°26' W 000°19'0 0.0
2018-Jun-16 00:30N 39°26' W 000°19'0 0.0
2018-Jun-16 00:00N 39°26' W 000°19'0 0.0
2018-Jun-15 23:24N 39°26' W 000°19'0 0.0
2018-Jun-15 21:15N 39°26' W 000°19'0 0.0
2018-Jun-15 20:45N 39°26' W 000°19'0 0.0
2018-Jun-15 15:39N 39°26' W 000°19'0 0.0
2018-Jun-15 15:09N 39°26' W 000°19'0 0.0
2018-Jun-15 14:57N 39°26' W 000°19'0 0.0
2018-Jun-15 14:27N 39°26' W 000°19'0 0.0
2018-Jun-15 12:27N 39°26' W 000°19'0 0.0
2018-Jun-15 11:48N 39°26' W 000°19'0 0.9
2018-Jun-15 11:29N 39°26' W 000°19'3 7.2
2018-Jun-15 11:00N 39°25' W 000°15'3 2.3
2018-Jun-15 09:43N 39°27' W 000°12'2 8.6
2018-Jun-15 09:30N 39°29' W 000°13'12416.7
2018-Jun-15 02:04N 40°60' E 001°38'116.8
2018-Jun-15 02:00N 41°00' E 001°39'816.6
2018-Jun-15 01:30N 41°05' E 001°48'815.8
2018-Jun-15 01:00N 41°09' E 001°57'816.0
2018-Jun-15 00:30N 41°14' E 002°05'612.6
2018-Jun-15 00:01N 41°19' E 002°10'2 3.6
2018-Jun-14 23:30N 41°21' E 002°10'0 0.1
2018-Jun-14 22:58N 41°21' E 002°10'0 0.0
2018-Jun-14 22:28N 41°21' E 002°10'0 0.0
2018-Jun-14 21:58N 41°21' E 002°10'0 0.0
2018-Jun-14 21:28N 41°21' E 002°10'0 0.0
2018-Jun-14 20:58N 41°21' E 002°10'0 0.0
2018-Jun-14 20:28N 41°21' E 002°10'0 0.0
2018-Jun-14 19:58N 41°21' E 002°10'0 0.0
2018-Jun-14 19:28N 41°21' E 002°10'0 0.0
2018-Jun-14 18:58N 41°21' E 002°10'0 0.0
2018-Jun-14 18:28N 41°21' E 002°10'0 0.0
2018-Jun-14 17:58N 41°21' E 002°10'0 0.0
2018-Jun-14 17:28N 41°21' E 002°10'0 0.0
2018-Jun-14 16:58N 41°21' E 002°10'0 0.0
2018-Jun-14 16:28N 41°21' E 002°10'0 0.0
2018-Jun-14 15:58N 41°21' E 002°10'0 0.0
2018-Jun-14 15:28N 41°21' E 002°10'0 0.0
2018-Jun-14 14:55N 41°21' E 002°10'0 0.0
2018-Jun-14 14:28N 41°21' E 002°10'0 0.0
2018-Jun-14 13:58N 41°21' E 002°10'0 0.0
2018-Jun-14 13:25N 41°21' E 002°10'0 0.0
2018-Jun-14 12:58N 41°21' E 002°10'0 0.0
2018-Jun-14 12:28N 41°21' E 002°10'0 0.0
2018-Jun-14 11:55N 41°21' E 002°10'0 0.0
2018-Jun-14 11:28N 41°21' E 002°10'0 0.0
2018-Jun-14 10:58N 41°21' E 002°10'2 3.9
2018-Jun-14 10:31N 41°19' E 002°10'3 6.1
2018-Jun-14 10:00N 41°17' E 002°13'917.3
2018-Jun-14 09:30N 41°22' E 002°23'15619.2
2018-Jun-14 01:22N 43°09' E 004°57'716.4
2018-Jun-14 00:56N 43°15' E 004°60'714.8
2018-Jun-14 00:30N 43°22' E 004°58'4 8.0
2018-Jun-14 00:00N 43°24' E 004°53'2 3.5
2018-Jun-13 23:28N 43°25' E 004°51'0 0.0
2018-Jun-13 22:58N 43°25' E 004°51'0 0.0
2018-Jun-13 22:28N 43°25' E 004°51'0 0.0
2018-Jun-13 21:58N 43°25' E 004°51'0 0.0
2018-Jun-13 21:28N 43°25' E 004°51'0 0.0
2018-Jun-13 20:58N 43°25' E 004°51'0 0.0
2018-Jun-13 20:28N 43°25' E 004°51'0 0.0
2018-Jun-13 19:58N 43°25' E 004°51'0 0.0
2018-Jun-13 19:28N 43°25' E 004°51'0 0.0
2018-Jun-13 18:58N 43°25' E 004°51'0 0.0
2018-Jun-13 18:19N 43°25' E 004°51'0 0.0
2018-Jun-13 17:49N 43°25' E 004°51'0 0.0
2018-Jun-13 17:28N 43°25' E 004°51'0 0.0
2018-Jun-13 16:40N 43°25' E 004°51'0 0.0
2018-Jun-13 16:28N 43°25' E 004°51'0 0.0
2018-Jun-13 15:49N 43°25' E 004°51'0 0.0
2018-Jun-13 15:28N 43°25' E 004°51'0 0.0
2018-Jun-13 14:58N 43°25' E 004°51'0 0.0
2018-Jun-13 14:28N 43°25' E 004°51'0 0.0
2018-Jun-13 13:49N 43°25' E 004°51'0 0.0
2018-Jun-13 13:28N 43°25' E 004°51'0 0.0
2018-Jun-13 12:58N 43°25' E 004°51'0 0.0
2018-Jun-13 12:28N 43°25' E 004°51'0 0.0
2018-Jun-13 11:58N 43°25' E 004°51'0 0.0
2018-Jun-13 11:28N 43°25' E 004°51'0 0.0
2018-Jun-13 10:58N 43°25' E 004°51'0 0.0
2018-Jun-13 10:25N 43°25' E 004°51'0 0.0
2018-Jun-13 09:58N 43°25' E 004°51'0 0.0
2018-Jun-13 09:28N 43°25' E 004°51'0 0.0
2018-Jun-13 08:46N 43°25' E 004°51'0 0.0
2018-Jun-13 08:28N 43°25' E 004°51'0 0.0
2018-Jun-13 07:58N 43°25' E 004°51'0 0.0
2018-Jun-13 07:28N 43°25' E 004°51'0 0.0
2018-Jun-13 06:58N 43°25' E 004°51'0 0.0
2018-Jun-13 06:28N 43°25' E 004°51'0 0.0
2018-Jun-13 05:58N 43°25' E 004°51'0 0.0
2018-Jun-13 05:22N 43°25' E 004°51'0 0.0
2018-Jun-13 04:52N 43°25' E 004°51'0 0.0
2018-Jun-13 04:28N 43°25' E 004°51'0 0.0
2018-Jun-13 03:58N 43°25' E 004°51'0 0.0
2018-Jun-13 03:28N 43°25' E 004°51'0 0.8
2018-Jun-13 02:58N 43°24' E 004°51'2 5.3
2018-Jun-13 02:30N 43°24' E 004°55'510.1
2018-Jun-13 02:00N 43°20' E 004°59'611.5
2018-Jun-13 01:30N 43°14' E 005°02'510.7
2018-Jun-13 01:00N 43°10' E 005°06'8511.7
2018-Jun-12 17:46N 43°00' E 007°01'412.5
2018-Jun-12 17:29N 43°01' E 007°06'712.3
2018-Jun-12 16:57N 43°03' E 007°14'612.3
2018-Jun-12 16:30N 43°04' E 007°22'612.3
2018-Jun-12 16:00N 43°05' E 007°30'812.0
2018-Jun-12 15:18N 43°07' E 007°41'412.1
2018-Jun-12 15:00N 43°08' E 007°46'4712.0
2018-Jun-12 11:07N 43°19' E 008°48'112.0
2018-Jun-12 11:00N 43°20' E 008°50'612.0
2018-Jun-12 10:30N 43°21' E 008°58'612.0
2018-Jun-12 10:00N 43°23' E 009°06'611.9
2018-Jun-12 09:30N 43°24' E 009°14'612.0
2018-Jun-12 09:00N 43°26' E 009°22'612.1
2018-Jun-12 08:30N 43°27' E 009°30'612.1
2018-Jun-12 08:00N 43°29' E 009°38'612.1
2018-Jun-12 07:30N 43°30' E 009°46'612.0
2018-Jun-12 07:00N 43°31' E 009°54'611.8
2018-Jun-12 06:30N 43°30' E 010°02'611.7
2018-Jun-12 06:00N 43°31' E 010°10'5 9.7
2018-Jun-12 05:30N 43°32' E 010°17'2 4.6
2018-Jun-12 05:00N 43°34' E 010°18'0 0.7
2018-Jun-12 04:30N 43°34' E 010°18'0 0.0
2018-Jun-12 04:00N 43°34' E 010°18'0 0.0
2018-Jun-12 03:30N 43°34' E 010°18'0 0.0
2018-Jun-12 03:00N 43°34' E 010°18'0 0.0
2018-Jun-12 02:30N 43°34' E 010°18'0 0.0
2018-Jun-12 02:00N 43°34' E 010°18'0 0.0
2018-Jun-12 01:24N 43°34' E 010°18'0 0.0
2018-Jun-12 01:00N 43°34' E 010°18'0 0.0
2018-Jun-12 00:30N 43°34' E 010°18'0 0.0
2018-Jun-12 00:00N 43°34' E 010°18'0 0.0
2018-Jun-11 23:30N 43°34' E 010°18'0 0.0
2018-Jun-11 23:00N 43°34' E 010°18'0 0.0
2018-Jun-11 22:30N 43°34' E 010°18'0 0.0
2018-Jun-11 22:00N 43°34' E 010°18'0 0.0
2018-Jun-11 21:27N 43°34' E 010°18'0 0.0
2018-Jun-11 21:00N 43°34' E 010°18'0 0.0
2018-Jun-11 20:30N 43°34' E 010°18'0 0.0
2018-Jun-11 19:57N 43°34' E 010°18'0 0.0
2018-Jun-11 19:30N 43°34' E 010°18'0 0.0
2018-Jun-11 19:00N 43°34' E 010°18'0 0.0
2018-Jun-11 18:30N 43°34' E 010°18'0 0.0
2018-Jun-11 18:00N 43°34' E 010°18'0 0.0
2018-Jun-11 17:30N 43°34' E 010°18'0 0.0
2018-Jun-11 17:00N 43°34' E 010°18'0 0.0
2018-Jun-11 16:30N 43°34' E 010°18'0 0.0
2018-Jun-11 16:00N 43°34' E 010°18'0 0.0
2018-Jun-11 15:30N 43°34' E 010°18'0 0.0
2018-Jun-11 15:00N 43°34' E 010°18'0 0.0
2018-Jun-11 14:30N 43°34' E 010°18'0 0.0
2018-Jun-11 14:00N 43°34' E 010°18'0 0.0
2018-Jun-11 13:30N 43°34' E 010°18'0 0.0
2018-Jun-11 13:00N 43°34' E 010°18'0 0.0
2018-Jun-11 12:30N 43°34' E 010°18'0 0.0
2018-Jun-11 11:57N 43°34' E 010°18'0 0.0
2018-Jun-11 11:30N 43°34' E 010°18'0 0.0
2018-Jun-11 11:00N 43°34' E 010°18'0 0.0
2018-Jun-11 10:30N 43°34' E 010°18'0 0.0
2018-Jun-11 10:00N 43°34' E 010°18'0 0.0
2018-Jun-11 09:30N 43°34' E 010°18'0 0.0
2018-Jun-11 08:54N 43°34' E 010°18'0 0.1
2018-Jun-11 08:30N 43°34' E 010°18'2 3.2
2018-Jun-11 08:00N 43°33' E 010°17'3 5.1
2018-Jun-11 07:30N 43°31' E 010°16'1 2.1
2018-Jun-11 07:00N 43°30' E 010°15'1 2.6
2018-Jun-11 06:30N 43°29' E 010°13'3 5.2
2018-Jun-11 06:00N 43°29' E 010°10'4 8.6
2018-Jun-11 05:30N 43°29' E 010°04'4 8.5
2018-Jun-11 05:00N 43°29' E 009°58'5 9.1
2018-Jun-11 04:30N 43°32' E 009°53'5 9.3
2018-Jun-11 04:00N 43°35' E 009°48'5 9.4
2018-Jun-11 03:30N 43°38' E 009°43'5 9.3
2018-Jun-11 03:00N 43°41' E 009°38'5 9.1
2018-Jun-11 02:30N 43°44' E 009°33'5 9.4
2018-Jun-11 02:00N 43°47' E 009°29'5 9.4
2018-Jun-11 01:30N 43°50' E 009°24'5 9.3
2018-Jun-11 01:00N 43°53' E 009°19'5 9.1
2018-Jun-11 00:30N 43°56' E 009°14'4 9.0
2018-Jun-11 00:00N 43°59' E 009°09'5 9.1
2018-Jun-10 23:30N 44°03' E 009°05'4 8.9
2018-Jun-10 23:00N 44°06' E 009°01'4 8.9
2018-Jun-10 22:30N 44°09' E 008°57'4 8.8
2018-Jun-10 22:00N 44°12' E 008°53'4 8.9
2018-Jun-10 21:30N 44°16' E 008°49'4 8.8
2018-Jun-10 21:00N 44°19' E 008°45'4 7.5
2018-Jun-10 20:30N 44°23' E 008°43'4 7.2
2018-Jun-10 20:00N 44°25' E 008°47'1 1.4
2018-Jun-10 19:30N 44°25' E 008°48'0 0.0
2018-Jun-10 19:00N 44°25' E 008°48'0 0.0
2018-Jun-10 18:30N 44°25' E 008°48'0 0.0
2018-Jun-10 18:00N 44°25' E 008°48'0 0.0
2018-Jun-10 17:30N 44°25' E 008°48'0 0.0
2018-Jun-10 17:00N 44°25' E 008°48'0 0.0
2018-Jun-10 16:30N 44°25' E 008°48'0 0.0
2018-Jun-10 16:00N 44°25' E 008°48'0 0.0
2018-Jun-10 15:30N 44°25' E 008°48'0 0.0
2018-Jun-10 15:00N 44°25' E 008°48'0 0.0
2018-Jun-10 14:30N 44°25' E 008°48'0 0.0
2018-Jun-10 13:30N 44°25' E 008°48'0 0.0
2018-Jun-10 13:00N 44°25' E 008°48'0 0.0
2018-Jun-10 12:30N 44°25' E 008°48'0 0.0
2018-Jun-10 12:00N 44°25' E 008°48'0 0.0
2018-Jun-10 11:30N 44°25' E 008°48'0 0.0
2018-Jun-10 11:00N 44°25' E 008°48'0 0.0
2018-Jun-10 10:30N 44°25' E 008°48'0 0.0
2018-Jun-10 10:00N 44°25' E 008°48'0 0.0
2018-Jun-10 09:30N 44°25' E 008°48'0 0.0
2018-Jun-10 09:00N 44°25' E 008°48'0 0.0
2018-Jun-10 08:30N 44°25' E 008°48'0 0.0
2018-Jun-10 08:00N 44°25' E 008°48'0 0.0
2018-Jun-10 07:30N 44°25' E 008°48'0 0.0
2018-Jun-10 07:00N 44°25' E 008°48'0 0.0
2018-Jun-10 06:30N 44°25' E 008°48'0 0.0
2018-Jun-10 06:00N 44°25' E 008°48'0 0.0
2018-Jun-10 05:30N 44°25' E 008°48'0 0.0
2018-Jun-10 05:00N 44°25' E 008°48'0 0.0
2018-Jun-10 04:30N 44°25' E 008°48'0 0.0
2018-Jun-10 04:00N 44°25' E 008°48'1 1.2
2018-Jun-10 03:30N 44°25' E 008°47'3 5.8
2018-Jun-10 03:00N 44°23' E 008°44'612.1
2018-Jun-10 02:30N 44°17' E 008°47'816.0
2018-Jun-10 02:00N 44°11' E 008°53'816.1
2018-Jun-10 01:31N 44°04' E 008°60'816.0
2018-Jun-10 01:00N 43°57' E 009°06'816.1
2018-Jun-10 00:30N 43°51' E 009°13'815.9
2018-Jun-10 00:00N 43°45' E 009°20'816.0
2018-Jun-09 23:31N 43°38' E 009°26'816.1
2018-Jun-09 23:01N 43°32' E 009°32'816.2
2018-Jun-09 22:30N 43°25' E 009°38'816.6
2018-Jun-09 22:01N 43°18' E 009°45'816.1
2018-Jun-09 21:30N 43°12' E 009°51'816.0
2018-Jun-09 21:00N 43°05' E 009°57'816.0
2018-Jun-09 20:31N 42°57' E 009°59'815.9
2018-Jun-09 20:00N 42°49' E 010°01'815.7
2018-Jun-09 19:29N 42°42' E 010°06'1016.0
2018-Jun-09 18:52N 42°35' E 010°15'616.1
2018-Jun-09 18:29N 42°31' E 010°21'1116.1
2018-Jun-09 17:49N 42°23' E 010°32'  
Track history (hours):
 
Tides and Currents Weather Stations Pressure Air Temp Water Temp Dewpoint Dewpoint Depression Visibility Wind Speed Wind Dir Waves Ship Positions

Blandine

Last reported at 2018-Jun-19 13:42 UTC. Time now 2018-Jun-23 19:43 UTC.
Position N 39°52' W 024°49'.

Length 295 m; draft 12.9 m.

Type: Ship (hazmat cat A). MMSI: 255805794.

Date/timePositionNaut miles runAvg speedWind from/ knotsBaromVisibWave heightAir tempDewpointWater temp
2018-Jun-19 13:42N 39°52' W 024°49'617.3
2018-Jun-19 13:20N 39°50' W 024°41'17317.8
2018-Jun-19 03:35N 39°08' W 021°03'818.1
2018-Jun-19 03:07N 39°05' W 020°53'618.1
2018-Jun-19 02:48N 39°04' W 020°46'5318.1
2018-Jun-18 23:50N 38°49' W 019°40'37617.8
2018-Jun-18 02:44N 36°50' W 012°09'1417.4
2018-Jun-18 01:55N 36°45' W 011°52'9317.2
2018-Jun-17 20:31N 36°11' W 010°05'117.3
2018-Jun-17 20:28N 36°11' W 010°04'917.2
2018-Jun-17 19:56N 36°07' W 009°53'717.4
2018-Jun-17 19:30N 36°04' W 009°45'917.5
2018-Jun-17 19:00N 36°01' W 009°34'918.1
2018-Jun-17 18:30N 35°58' W 009°24'1018.3
2018-Jun-17 17:58N 35°57' W 009°12'6518.4
2018-Jun-17 14:27N 35°58' W 007°52'918.9
2018-Jun-17 13:58N 35°58' W 007°41'918.4
2018-Jun-17 13:31N 35°57' W 007°30'918.3
2018-Jun-17 13:00N 35°57' W 007°19'918.3
2018-Jun-17 12:30N 35°58' W 007°08'1018.7
2018-Jun-17 11:59N 35°57' W 006°56'5917.7
2018-Jun-17 08:39N 35°57' W 005°43'613.8
2018-Jun-17 08:11N 35°57' W 005°35'212.9
2018-Jun-17 08:00N 35°59' W 005°32'611.5
2018-Jun-17 07:30N 35°60' W 005°25'510.2
2018-Jun-17 07:00N 36°00' W 005°19'714.2
2018-Jun-17 06:30N 36°01' W 005°10'715.0
2018-Jun-17 06:00N 36°03' W 005°01'915.4
2018-Jun-17 05:26N 36°05' W 004°51'11316.3
2018-Jun-16 22:29N 36°23' W 002°33'8417.2
2018-Jun-16 17:36N 37°10' W 001°06'518.7
2018-Jun-16 17:20N 37°14' W 001°01'618.6
2018-Jun-16 17:00N 37°18' W 000°56'918.4
2018-Jun-16 16:30N 37°24' W 000°47'1018.7
2018-Jun-16 16:00N 37°31' W 000°39'919.2
2018-Jun-16 15:30N 37°38' W 000°31'918.8
2018-Jun-16 15:00N 37°46' W 000°24'918.6
2018-Jun-16 14:30N 37°53' W 000°18'918.3
2018-Jun-16 14:00N 38°01' W 000°11'918.4
2018-Jun-16 13:31N 38°09' W 000°06'918.3
2018-Jun-16 13:00N 38°18' W 000°01'918.5
2018-Jun-16 12:31N 38°25' E 000°06'918.7
2018-Jun-16 12:00N 38°32' E 000°13'918.6
2018-Jun-16 11:31N 38°40' E 000°20'915.2
2018-Jun-16 10:57N 38°48' E 000°19'4817.5
2018-Jun-16 08:14N 39°26' W 000°18'1 2.3
2018-Jun-16 07:57N 39°26' W 000°19'0 0.2
2018-Jun-16 07:30N 39°26' W 000°19'0 0.0
2018-Jun-16 07:00N 39°26' W 000°19'0 0.0
2018-Jun-16 06:27N 39°26' W 000°19'0 0.0
2018-Jun-16 06:00N 39°26' W 000°19'0 0.0
2018-Jun-16 05:30N 39°26' W 000°19'0 0.0
2018-Jun-16 05:00N 39°26' W 000°19'0 0.0
2018-Jun-16 04:27N 39°26' W 000°19'0 0.0
2018-Jun-16 04:00N 39°26' W 000°19'0 0.0
2018-Jun-16 03:30N 39°26' W 000°19'0 0.0
2018-Jun-16 03:00N 39°26' W 000°19'0 0.0
2018-Jun-16 02:27N 39°26' W 000°19'0 0.0
2018-Jun-16 02:00N 39°26' W 000°19'0 0.0
2018-Jun-16 01:30N 39°26' W 000°19'0 0.0
2018-Jun-16 00:57N 39°26' W 000°19'0 0.0
2018-Jun-16 00:30N 39°26' W 000°19'0 0.0
2018-Jun-16 00:00N 39°26' W 000°19'0 0.0
2018-Jun-15 23:24N 39°26' W 000°19'0 0.0
2018-Jun-15 21:15N 39°26' W 000°19'0 0.0
2018-Jun-15 20:45N 39°26' W 000°19'0 0.0
2018-Jun-15 15:39N 39°26' W 000°19'0 0.0
2018-Jun-15 15:09N 39°26' W 000°19'0 0.0
2018-Jun-15 14:57N 39°26' W 000°19'0 0.0
2018-Jun-15 14:27N 39°26' W 000°19'0 0.0
2018-Jun-15 12:27N 39°26' W 000°19'0 0.0
2018-Jun-15 11:48N 39°26' W 000°19'0 0.9
2018-Jun-15 11:29N 39°26' W 000°19'3 7.2
2018-Jun-15 11:00N 39°25' W 000°15'3 2.3
2018-Jun-15 09:43N 39°27' W 000°12'2 8.6
2018-Jun-15 09:30N 39°29' W 000°13'12416.7
2018-Jun-15 02:04N 40°60' E 001°38'116.8
2018-Jun-15 02:00N 41°00' E 001°39'816.6
2018-Jun-15 01:30N 41°05' E 001°48'815.8
2018-Jun-15 01:00N 41°09' E 001°57'816.0
2018-Jun-15 00:30N 41°14' E 002°05'612.6
2018-Jun-15 00:01N 41°19' E 002°10'2 3.6
2018-Jun-14 23:30N 41°21' E 002°10'0 0.1
2018-Jun-14 22:58N 41°21' E 002°10'0 0.0
2018-Jun-14 22:28N 41°21' E 002°10'0 0.0
2018-Jun-14 21:58N 41°21' E 002°10'0 0.0
2018-Jun-14 21:28N 41°21' E 002°10'0 0.0
2018-Jun-14 20:58N 41°21' E 002°10'0 0.0
2018-Jun-14 20:28N 41°21' E 002°10'0 0.0
2018-Jun-14 19:58N 41°21' E 002°10'0 0.0
2018-Jun-14 19:28N 41°21' E 002°10'0 0.0
2018-Jun-14 18:58N 41°21' E 002°10'0 0.0
2018-Jun-14 18:28N 41°21' E 002°10'0 0.0
2018-Jun-14 17:58N 41°21' E 002°10'0 0.0
2018-Jun-14 17:28N 41°21' E 002°10'0 0.0
2018-Jun-14 16:58N 41°21' E 002°10'0 0.0
2018-Jun-14 16:28N 41°21' E 002°10'0 0.0
2018-Jun-14 15:58N 41°21' E 002°10'0 0.0
2018-Jun-14 15:28N 41°21' E 002°10'0 0.0
2018-Jun-14 14:55N 41°21' E 002°10'0 0.0
2018-Jun-14 14:28N 41°21' E 002°10'0 0.0
2018-Jun-14 13:58N 41°21' E 002°10'0 0.0
2018-Jun-14 13:25N 41°21' E 002°10'0 0.0
2018-Jun-14 12:58N 41°21' E 002°10'0 0.0
2018-Jun-14 12:28N 41°21' E 002°10'0 0.0
2018-Jun-14 11:55N 41°21' E 002°10'0 0.0
2018-Jun-14 11:28N 41°21' E 002°10'0 0.0
2018-Jun-14 10:58N 41°21' E 002°10'2 3.9
2018-Jun-14 10:31N 41°19' E 002°10'3 6.1
2018-Jun-14 10:00N 41°17' E 002°13'917.3
2018-Jun-14 09:30N 41°22' E 002°23'15619.2
2018-Jun-14 01:22N 43°09' E 004°57'716.4
2018-Jun-14 00:56N 43°15' E 004°60'714.8
2018-Jun-14 00:30N 43°22' E 004°58'4 8.0
2018-Jun-14 00:00N 43°24' E 004°53'2 3.5
2018-Jun-13 23:28N 43°25' E 004°51'0 0.0
2018-Jun-13 22:58N 43°25' E 004°51'0 0.0
2018-Jun-13 22:28N 43°25' E 004°51'0 0.0
2018-Jun-13 21:58N 43°25' E 004°51'0 0.0
2018-Jun-13 21:28N 43°25' E 004°51'0 0.0
2018-Jun-13 20:58N 43°25' E 004°51'0 0.0
2018-Jun-13 20:28N 43°25' E 004°51'0 0.0
2018-Jun-13 19:58N 43°25' E 004°51'0 0.0
2018-Jun-13 19:28N 43°25' E 004°51'0 0.0
2018-Jun-13 18:58N 43°25' E 004°51'0 0.0
2018-Jun-13 18:19N 43°25' E 004°51'0 0.0
2018-Jun-13 17:49N 43°25' E 004°51'0 0.0
2018-Jun-13 17:28N 43°25' E 004°51'0 0.0
2018-Jun-13 16:40N 43°25' E 004°51'0 0.0
2018-Jun-13 16:28N 43°25' E 004°51'0 0.0
2018-Jun-13 15:49N 43°25' E 004°51'0 0.0
2018-Jun-13 15:28N 43°25' E 004°51'0 0.0
2018-Jun-13 14:58N 43°25' E 004°51'0 0.0
2018-Jun-13 14:28N 43°25' E 004°51'0 0.0
2018-Jun-13 13:49N 43°25' E 004°51'0 0.0
2018-Jun-13 13:28N 43°25' E 004°51'0 0.0
2018-Jun-13 12:58N 43°25' E 004°51'0 0.0
2018-Jun-13 12:28N 43°25' E 004°51'0 0.0
2018-Jun-13 11:58N 43°25' E 004°51'0 0.0
2018-Jun-13 11:28N 43°25' E 004°51'0 0.0
2018-Jun-13 10:58N 43°25' E 004°51'0 0.0
2018-Jun-13 10:25N 43°25' E 004°51'0 0.0
2018-Jun-13 09:58N 43°25' E 004°51'0 0.0
2018-Jun-13 09:28N 43°25' E 004°51'0 0.0
2018-Jun-13 08:46N 43°25' E 004°51'0 0.0
2018-Jun-13 08:28N 43°25' E 004°51'0 0.0
2018-Jun-13 07:58N 43°25' E 004°51'0 0.0
2018-Jun-13 07:28N 43°25' E 004°51'0 0.0
2018-Jun-13 06:58N 43°25' E 004°51'0 0.0
2018-Jun-13 06:28N 43°25' E 004°51'0 0.0
2018-Jun-13 05:58N 43°25' E 004°51'0 0.0
2018-Jun-13 05:22N 43°25' E 004°51'0 0.0
2018-Jun-13 04:52N 43°25' E 004°51'0 0.0
2018-Jun-13 04:28N 43°25' E 004°51'0 0.0
2018-Jun-13 03:58N 43°25' E 004°51'0 0.0
2018-Jun-13 03:28N 43°25' E 004°51'0 0.8
2018-Jun-13 02:58N 43°24' E 004°51'2 5.3
2018-Jun-13 02:30N 43°24' E 004°55'510.1
2018-Jun-13 02:00N 43°20' E 004°59'611.5
2018-Jun-13 01:30N 43°14' E 005°02'510.7
2018-Jun-13 01:00N 43°10' E 005°06'8511.7
2018-Jun-12 17:46N 43°00' E 007°01'412.5
2018-Jun-12 17:29N 43°01' E 007°06'712.3
2018-Jun-12 16:57N 43°03' E 007°14'612.3
2018-Jun-12 16:30N 43°04' E 007°22'612.3
2018-Jun-12 16:00N 43°05' E 007°30'812.0
2018-Jun-12 15:18N 43°07' E 007°41'412.1
2018-Jun-12 15:00N 43°08' E 007°46'4712.0
2018-Jun-12 11:07N 43°19' E 008°48'112.0
2018-Jun-12 11:00N 43°20' E 008°50'612.0
2018-Jun-12 10:30N 43°21' E 008°58'612.0
2018-Jun-12 10:00N 43°23' E 009°06'611.9
2018-Jun-12 09:30N 43°24' E 009°14'612.0
2018-Jun-12 09:00N 43°26' E 009°22'612.1
2018-Jun-12 08:30N 43°27' E 009°30'612.1
2018-Jun-12 08:00N 43°29' E 009°38'612.1
2018-Jun-12 07:30N 43°30' E 009°46'612.0
2018-Jun-12 07:00N 43°31' E 009°54'611.8
2018-Jun-12 06:30N 43°30' E 010°02'611.7
2018-Jun-12 06:00N 43°31' E 010°10'5 9.7
2018-Jun-12 05:30N 43°32' E 010°17'2 4.6
2018-Jun-12 05:00N 43°34' E 010°18'0 0.7
2018-Jun-12 04:30N 43°34' E 010°18'0 0.0
2018-Jun-12 04:00N 43°34' E 010°18'0 0.0
2018-Jun-12 03:30N 43°34' E 010°18'0 0.0
2018-Jun-12 03:00N 43°34' E 010°18'0 0.0
2018-Jun-12 02:30N 43°34' E 010°18'0 0.0
2018-Jun-12 02:00N 43°34' E 010°18'0 0.0
2018-Jun-12 01:24N 43°34' E 010°18'0 0.0
2018-Jun-12 01:00N 43°34' E 010°18'0 0.0
2018-Jun-12 00:30N 43°34' E 010°18'0 0.0
2018-Jun-12 00:00N 43°34' E 010°18'0 0.0
2018-Jun-11 23:30N 43°34' E 010°18'0 0.0
2018-Jun-11 23:00N 43°34' E 010°18'0 0.0
2018-Jun-11 22:30N 43°34' E 010°18'0 0.0
2018-Jun-11 22:00N 43°34' E 010°18'0 0.0
2018-Jun-11 21:27N 43°34' E 010°18'0 0.0
2018-Jun-11 21:00N 43°34' E 010°18'0 0.0
2018-Jun-11 20:30N 43°34' E 010°18'0 0.0
2018-Jun-11 19:57N 43°34' E 010°18'0 0.0
2018-Jun-11 19:30N 43°34' E 010°18'0 0.0
2018-Jun-11 19:00N 43°34' E 010°18'0 0.0
2018-Jun-11 18:30N 43°34' E 010°18'0 0.0
2018-Jun-11 18:00N 43°34' E 010°18'0 0.0
2018-Jun-11 17:30N 43°34' E 010°18'0 0.0
2018-Jun-11 17:00N 43°34' E 010°18'0 0.0
2018-Jun-11 16:30N 43°34' E 010°18'0 0.0
2018-Jun-11 16:00N 43°34' E 010°18'0 0.0
2018-Jun-11 15:30N 43°34' E 010°18'0 0.0
2018-Jun-11 15:00N 43°34' E 010°18'0 0.0
2018-Jun-11 14:30N 43°34' E 010°18'0 0.0
2018-Jun-11 14:00N 43°34' E 010°18'0 0.0
2018-Jun-11 13:30N 43°34' E 010°18'0 0.0
2018-Jun-11 13:00N 43°34' E 010°18'0 0.0
2018-Jun-11 12:30N 43°34' E 010°18'0 0.0
2018-Jun-11 11:57N 43°34' E 010°18'0 0.0
2018-Jun-11 11:30N 43°34' E 010°18'0 0.0
2018-Jun-11 11:00N 43°34' E 010°18'0 0.0
2018-Jun-11 10:30N 43°34' E 010°18'0 0.0
2018-Jun-11 10:00N 43°34' E 010°18'0 0.0
2018-Jun-11 09:30N 43°34' E 010°18'0 0.0
2018-Jun-11 08:54N 43°34' E 010°18'0 0.1
2018-Jun-11 08:30N 43°34' E 010°18'2 3.2
2018-Jun-11 08:00N 43°33' E 010°17'3 5.1
2018-Jun-11 07:30N 43°31' E 010°16'1 2.1
2018-Jun-11 07:00N 43°30' E 010°15'1 2.6
2018-Jun-11 06:30N 43°29' E 010°13'3 5.2
2018-Jun-11 06:00N 43°29' E 010°10'4 8.6
2018-Jun-11 05:30N 43°29' E 010°04'4 8.5
2018-Jun-11 05:00N 43°29' E 009°58'5 9.1
2018-Jun-11 04:30N 43°32' E 009°53'5 9.3
2018-Jun-11 04:00N 43°35' E 009°48'5 9.4
2018-Jun-11 03:30N 43°38' E 009°43'5 9.3
2018-Jun-11 03:00N 43°41' E 009°38'5 9.1
2018-Jun-11 02:30N 43°44' E 009°33'5 9.4
2018-Jun-11 02:00N 43°47' E 009°29'5 9.4
2018-Jun-11 01:30N 43°50' E 009°24'5 9.3
2018-Jun-11 01:00N 43°53' E 009°19'5 9.1
2018-Jun-11 00:30N 43°56' E 009°14'4 9.0
2018-Jun-11 00:00N 43°59' E 009°09'5 9.1
2018-Jun-10 23:30N 44°03' E 009°05'4 8.9
2018-Jun-10 23:00N 44°06' E 009°01'4 8.9
2018-Jun-10 22:30N 44°09' E 008°57'4 8.8
2018-Jun-10 22:00N 44°12' E 008°53'4 8.9
2018-Jun-10 21:30N 44°16' E 008°49'4 8.8
2018-Jun-10 21:00N 44°19' E 008°45'4 7.5
2018-Jun-10 20:30N 44°23' E 008°43'4 7.2
2018-Jun-10 20:00N 44°25' E 008°47'1 1.4
2018-Jun-10 19:30N 44°25' E 008°48'0 0.0
2018-Jun-10 19:00N 44°25' E 008°48'0 0.0
2018-Jun-10 18:30N 44°25' E 008°48'0 0.0
2018-Jun-10 18:00N 44°25' E 008°48'0 0.0
2018-Jun-10 17:30N 44°25' E 008°48'0 0.0
2018-Jun-10 17:00N 44°25' E 008°48'0 0.0
2018-Jun-10 16:30N 44°25' E 008°48'0 0.0
2018-Jun-10 16:00N 44°25' E 008°48'0 0.0
2018-Jun-10 15:30N 44°25' E 008°48'0 0.0
2018-Jun-10 15:00N 44°25' E 008°48'0 0.0
2018-Jun-10 14:30N 44°25' E 008°48'0 0.0
2018-Jun-10 13:30N 44°25' E 008°48'0 0.0
2018-Jun-10 13:00N 44°25' E 008°48'0 0.0
2018-Jun-10 12:30N 44°25' E 008°48'0 0.0
2018-Jun-10 12:00N 44°25' E 008°48'0 0.0
2018-Jun-10 11:30N 44°25' E 008°48'0 0.0
2018-Jun-10 11:00N 44°25' E 008°48'0 0.0
2018-Jun-10 10:30N 44°25' E 008°48'0 0.0
2018-Jun-10 10:00N 44°25' E 008°48'0 0.0
2018-Jun-10 09:30N 44°25' E 008°48'0 0.0
2018-Jun-10 09:00N 44°25' E 008°48'0 0.0
2018-Jun-10 08:30N 44°25' E 008°48'0 0.0
2018-Jun-10 08:00N 44°25' E 008°48'0 0.0
2018-Jun-10 07:30N 44°25' E 008°48'0 0.0
2018-Jun-10 07:00N 44°25' E 008°48'0 0.0
2018-Jun-10 06:30N 44°25' E 008°48'0 0.0
2018-Jun-10 06:00N 44°25' E 008°48'0 0.0
2018-Jun-10 05:30N 44°25' E 008°48'0 0.0
2018-Jun-10 05:00N 44°25' E 008°48'0 0.0
2018-Jun-10 04:30N 44°25' E 008°48'0 0.0
2018-Jun-10 04:00N 44°25' E 008°48'1 1.2
2018-Jun-10 03:30N 44°25' E 008°47'3 5.8
2018-Jun-10 03:00N 44°23' E 008°44'612.1
2018-Jun-10 02:30N 44°17' E 008°47'816.0
2018-Jun-10 02:00N 44°11' E 008°53'816.1
2018-Jun-10 01:31N 44°04' E 008°60'816.0
2018-Jun-10 01:00N 43°57' E 009°06'816.1
2018-Jun-10 00:30N 43°51' E 009°13'815.9
2018-Jun-10 00:00N 43°45' E 009°20'816.0
2018-Jun-09 23:31N 43°38' E 009°26'816.1
2018-Jun-09 23:01N 43°32' E 009°32'816.2
2018-Jun-09 22:30N 43°25' E 009°38'816.6
2018-Jun-09 22:01N 43°18' E 009°45'816.1
2018-Jun-09 21:30N 43°12' E 009°51'816.0
2018-Jun-09 21:00N 43°05' E 009°57'816.0
2018-Jun-09 20:31N 42°57' E 009°59'815.9
2018-Jun-09 20:00N 42°49' E 010°01'815.7
2018-Jun-09 19:29N 42°42' E 010°06'1016.0
2018-Jun-09 18:52N 42°35' E 010°15'616.1
2018-Jun-09 18:29N 42°31' E 010°21'1116.1
2018-Jun-09 17:49N 42°23' E 010°32'  

Dump ship's entire track history